createdAt,value
2023-04-24T00:02:12.116Z,13.63
2023-04-24T00:07:15.376Z,13.64
2023-04-24T00:12:17.198Z,13.66
2023-04-24T00:17:20.937Z,13.70
2023-04-24T00:22:23.124Z,13.76
2023-04-24T00:27:24.922Z,13.80
2023-04-24T00:32:27.079Z,13.83
2023-04-24T00:37:30.738Z,13.83
2023-04-24T00:42:32.429Z,13.78
2023-04-24T00:47:34.563Z,13.69
2023-04-24T00:52:37.003Z,13.60
2023-04-24T00:57:39.034Z,13.50
2023-04-24T01:02:45.041Z,13.46
2023-04-24T01:07:49.923Z,13.42
2023-04-24T01:12:52.705Z,13.40
2023-04-24T01:17:54.365Z,13.31
2023-04-24T01:22:57.478Z,13.24
2023-04-24T01:27:59.433Z,13.21
2023-04-24T01:33:01.404Z,13.22
2023-04-24T01:38:03.263Z,13.20
2023-04-24T01:43:04.896Z,13.14
2023-04-24T01:48:06.951Z,13.11
2023-04-24T01:53:08.649Z,13.11
2023-04-24T01:58:11.612Z,13.08
2023-04-24T02:03:13.403Z,13.02
2023-04-24T02:08:15.097Z,12.96
2023-04-24T02:13:16.684Z,12.93
2023-04-24T02:18:20.793Z,12.90
2023-04-24T02:23:22.458Z,12.88
2023-04-24T02:28:24.082Z,12.84
2023-04-24T02:33:25.836Z,12.78
2023-04-24T02:38:27.535Z,12.74
2023-04-24T02:43:29.139Z,12.74
2023-04-24T02:48:31.004Z,12.76
2023-04-24T02:53:32.679Z,12.76
2023-04-24T02:58:34.904Z,12.75
2023-04-24T03:03:37.048Z,12.75
2023-04-24T03:08:39.323Z,12.72
2023-04-24T03:13:41.031Z,12.69
2023-04-24T03:18:42.821Z,12.68
2023-04-24T03:23:45.410Z,12.70
2023-04-24T03:28:47.503Z,12.72
2023-04-24T03:33:49.334Z,12.75
2023-04-24T03:38:51.263Z,12.75
2023-04-24T03:43:58.142Z,12.71
2023-04-24T03:49:01.406Z,12.66
2023-04-24T03:54:07.818Z,12.69
2023-04-24T03:59:12.886Z,12.69
2023-04-24T04:04:16.431Z,12.64
2023-04-24T04:09:19.816Z,12.64
2023-04-24T04:14:22.206Z,12.64
2023-04-24T04:19:23.955Z,12.62
2023-04-24T04:24:27.468Z,12.67
2023-04-24T04:29:29.573Z,12.65
2023-04-24T04:34:32.363Z,12.63
2023-04-24T04:39:34.759Z,12.59
2023-04-24T04:44:51.403Z,12.58
2023-04-24T04:49:57.160Z,12.53
2023-04-24T04:55:02.202Z,12.50
2023-04-24T05:00:26.379Z,12.48
2023-04-24T05:05:29.248Z,12.46
2023-04-24T05:10:31.609Z,12.49
2023-04-24T05:15:33.463Z,12.43
2023-04-24T05:20:36.752Z,12.58
2023-04-24T05:25:41.113Z,12.70
2023-04-24T05:30:46.437Z,12.75
2023-04-24T05:35:49.647Z,12.71
2023-04-24T05:40:52.286Z,12.74
2023-04-24T05:45:54.578Z,12.78
2023-04-24T05:50:56.177Z,12.79
2023-04-24T05:55:59.724Z,12.83
2023-04-24T06:01:02.779Z,12.81
2023-04-24T06:06:05.008Z,12.89
2023-04-24T06:11:08.408Z,12.91
2023-04-24T06:16:11.390Z,13.02
2023-04-24T06:21:17.314Z,13.07
2023-04-24T06:26:20.061Z,13.02
2023-04-24T06:31:22.141Z,13.05
2023-04-24T06:36:23.865Z,13.05
2023-04-24T06:41:25.977Z,12.99
2023-04-24T06:46:28.788Z,13.02
2023-04-24T06:51:31.558Z,12.91
2023-04-24T06:56:35.160Z,12.91
2023-04-24T07:01:36.928Z,12.98
2023-04-24T07:06:38.786Z,12.94
2023-04-24T07:11:41.650Z,13.12
2023-04-24T07:16:43.678Z,13.24
2023-04-24T07:21:46.314Z,13.19
2023-04-24T07:26:47.915Z,13.05
2023-04-24T07:31:49.734Z,13.03
2023-04-24T07:36:51.487Z,12.99
2023-04-24T07:41:53.079Z,13.00
2023-04-24T07:46:54.971Z,13.00
2023-04-24T07:51:56.887Z,13.00
2023-04-24T07:56:58.534Z,12.88
2023-04-24T08:02:01.844Z,11.97
2023-04-24T08:07:03.581Z,11.28
2023-04-24T08:12:05.316Z,10.94
2023-04-24T08:17:08.771Z,10.89
2023-04-24T08:22:11.502Z,10.73
2023-04-24T08:27:13.154Z,10.66
2023-04-24T08:32:15.152Z,10.72
2023-04-24T08:37:16.872Z,10.89
2023-04-24T08:42:19.096Z,11.05
2023-04-24T08:47:21.341Z,11.24
2023-04-24T08:52:23.671Z,11.55
2023-04-24T08:57:25.867Z,11.91
2023-04-24T09:02:27.799Z,12.11
2023-04-24T09:07:31.327Z,12.23
2023-04-24T09:12:33.738Z,12.26
2023-04-24T09:17:36.483Z,12.41
2023-04-24T09:22:38.236Z,12.66
2023-04-24T09:27:46.413Z,12.65
2023-04-24T09:32:48.297Z,12.74
2023-04-24T09:37:50.301Z,12.83
2023-04-24T09:42:56.559Z,12.98
2023-04-24T09:47:58.259Z,12.98
2023-04-24T09:53:02.232Z,12.91
2023-04-24T09:58:06.198Z,12.98
2023-04-24T10:03:09.134Z,12.98
2023-04-24T10:08:12.533Z,13.08
2023-04-24T10:13:16.198Z,13.17
2023-04-24T10:18:17.967Z,13.42
2023-04-24T10:23:20.345Z,13.73
2023-04-24T10:28:22.600Z,13.81
2023-04-24T10:33:25.101Z,13.75
2023-04-24T10:38:29.553Z,13.43
2023-04-24T10:43:31.289Z,13.12
2023-04-24T10:48:33.422Z,12.10
2023-04-24T10:53:36.007Z,11.52
2023-04-24T10:58:44.230Z,11.63
2023-04-24T11:03:52.006Z,11.92
2023-04-24T11:08:59.119Z,12.31
2023-04-24T11:14:01.052Z,12.70
2023-04-24T11:19:07.183Z,13.05
2023-04-24T11:24:27.941Z,13.18
2023-04-24T11:29:40.280Z,13.06
2023-04-24T11:34:41.868Z,13.01
2023-04-24T11:39:43.892Z,13.13
2023-04-24T11:44:48.486Z,13.34
2023-04-24T11:49:51.340Z,13.42
2023-04-24T11:54:52.987Z,13.74
2023-04-24T11:59:54.848Z,14.19
2023-04-24T12:04:57.198Z,14.26
2023-04-24T12:10:00.903Z,14.43
2023-04-24T12:15:07.322Z,14.92
2023-04-24T12:20:09.740Z,15.27
2023-04-24T12:25:11.705Z,14.91
2023-04-24T12:30:15.166Z,14.69
2023-04-24T12:35:21.386Z,14.97
2023-04-24T12:40:23.140Z,15.25
2023-04-24T12:45:26.387Z,15.23
2023-04-24T12:50:28.132Z,14.88
2023-04-24T12:55:29.883Z,14.71
2023-04-24T13:00:31.593Z,14.84
2023-04-24T13:05:33.296Z,14.50
2023-04-24T13:10:35.444Z,14.36
2023-04-24T13:15:37.186Z,14.70
2023-04-24T13:20:38.904Z,14.81
2023-04-24T13:25:40.577Z,14.68
2023-04-24T13:30:42.240Z,14.69
2023-04-24T13:35:44.219Z,14.51
2023-04-24T13:40:46.006Z,14.34
2023-04-24T13:45:50.681Z,14.37
2023-04-24T13:50:53.156Z,14.34
2023-04-24T13:55:54.746Z,14.28
2023-04-24T14:00:56.424Z,14.05
2023-04-24T14:05:58.640Z,13.99
2023-04-24T14:11:00.329Z,14.03
2023-04-24T14:16:02.292Z,14.15
2023-04-24T14:21:04.384Z,14.18
2023-04-24T14:26:06.231Z,14.20
2023-04-24T14:31:09.125Z,14.43
2023-04-24T14:36:11.427Z,14.51
2023-04-24T14:41:14.344Z,14.42
2023-04-24T14:46:16.635Z,14.14
2023-04-24T14:51:18.362Z,14.12
2023-04-24T14:56:20.153Z,14.34
2023-04-24T15:01:22.267Z,14.31
2023-04-24T15:06:24.153Z,13.99
2023-04-24T15:11:26.342Z,14.40
2023-04-24T15:16:28.044Z,14.10
2023-04-24T15:21:29.646Z,13.95
2023-04-24T15:26:31.493Z,13.83
2023-04-24T15:31:33.089Z,13.84
2023-04-24T15:36:34.803Z,13.87
2023-04-24T15:41:36.685Z,13.83
2023-04-24T15:46:38.399Z,14.13
2023-04-24T15:51:40.266Z,14.12
2023-04-24T15:56:41.880Z,13.82
2023-04-24T16:01:43.487Z,13.59
2023-04-24T16:06:45.227Z,13.42
2023-04-24T16:11:46.893Z,13.30
2023-04-24T16:16:48.696Z,13.32
2023-04-24T16:21:51.811Z,13.27
2023-04-24T16:26:53.447Z,13.33
2023-04-24T16:31:55.423Z,13.37
2023-04-24T16:36:57.290Z,13.29
2023-04-24T16:42:00.127Z,13.23
2023-04-24T16:47:02.561Z,13.22
2023-04-24T16:52:04.383Z,13.59
2023-04-24T16:57:07.792Z,13.70
2023-04-24T17:02:09.514Z,13.07
2023-04-24T17:07:11.753Z,12.73
2023-04-24T17:12:13.339Z,12.52
2023-04-24T17:17:15.014Z,12.43
2023-04-24T17:22:16.879Z,12.39
2023-04-24T17:27:18.656Z,12.32
2023-04-24T17:32:20.507Z,12.34
2023-04-24T17:37:23.412Z,12.29
2023-04-24T17:42:24.994Z,12.25
2023-04-24T17:47:27.322Z,12.48
2023-04-24T17:52:29.035Z,12.55
2023-04-24T17:57:30.918Z,12.53
2023-04-24T18:02:33.734Z,12.39
2023-04-24T18:07:35.705Z,12.23
2023-04-24T18:12:37.306Z,12.14
2023-04-24T18:17:38.950Z,11.95
2023-04-24T18:22:40.995Z,11.74
2023-04-24T18:27:42.652Z,11.68
2023-04-24T18:32:44.463Z,11.57
2023-04-24T18:37:46.505Z,11.48
2023-04-24T18:42:48.202Z,11.40
2023-04-24T18:47:50.331Z,11.38
2023-04-24T18:52:51.960Z,11.35
2023-04-24T18:57:53.567Z,11.29
2023-04-24T19:02:55.732Z,11.30
2023-04-24T19:07:57.506Z,11.24
2023-04-24T19:12:59.746Z,11.33
2023-04-24T19:18:01.654Z,11.33
2023-04-24T19:23:03.433Z,11.31
2023-04-24T19:28:05.559Z,11.27
2023-04-24T19:33:07.259Z,11.20
2023-04-24T19:38:09.997Z,11.13
2023-04-24T19:43:12.168Z,11.03
2023-04-24T19:48:13.844Z,10.89
2023-04-24T19:53:15.800Z,10.80
2023-04-24T19:58:20.196Z,10.79
2023-04-24T20:03:32.246Z,10.85
2023-04-24T20:08:38.722Z,10.95
2023-04-24T20:13:40.461Z,10.91
2023-04-24T20:18:42.075Z,10.85
2023-04-24T20:23:43.878Z,10.82
2023-04-24T20:28:45.438Z,10.84
2023-04-24T20:33:47.291Z,10.69
2023-04-24T20:38:49.196Z,10.36
2023-04-24T20:43:51.646Z,10.19
2023-04-24T20:48:53.274Z,10.08
2023-04-24T20:53:54.951Z,10.10
2023-04-24T20:58:57.411Z,10.15
2023-04-24T21:03:59.529Z,10.03
2023-04-24T21:09:01.170Z,10.09
2023-04-24T21:14:03.343Z,10.09
2023-04-24T21:19:05.325Z,10.20
2023-04-24T21:24:07.013Z,10.23
2023-04-24T21:29:08.865Z,10.08
2023-04-24T21:34:10.735Z,10.11
2023-04-24T21:39:12.329Z,9.97
2023-04-24T21:44:14.028Z,9.98
2023-04-24T21:49:15.880Z,10.01
2023-04-24T21:54:17.559Z,9.94
2023-04-24T21:59:19.349Z,9.91
2023-04-24T22:04:21.106Z,9.83
2023-04-24T22:09:23.452Z,9.61
2023-04-24T22:14:25.365Z,9.48
2023-04-24T22:19:28.257Z,9.61
2023-04-24T22:24:29.865Z,9.74
2023-04-24T22:29:31.888Z,9.83
2023-04-24T22:34:33.424Z,9.91
2023-04-24T22:39:35.375Z,9.96
2023-04-24T22:44:37.004Z,10.08
2023-04-24T22:49:39.748Z,10.22
2023-04-24T22:54:41.761Z,10.34
2023-04-24T22:59:44.124Z,10.33
2023-04-24T23:04:46.111Z,10.37
2023-04-24T23:09:47.746Z,10.39
2023-04-24T23:14:49.640Z,10.35
2023-04-24T23:19:51.326Z,10.34
2023-04-24T23:24:52.898Z,10.39
2023-04-24T23:29:54.945Z,10.46
2023-04-24T23:34:56.762Z,10.46
2023-04-24T23:39:58.894Z,10.45
2023-04-24T23:45:00.908Z,10.48
2023-04-24T23:50:02.519Z,10.43
2023-04-24T23:55:04.852Z,10.37
